Leo, IN (46765)

6:22 PM EDT on April 26, 2017 (GMT -0400)
Hardisty Road | | Change Station

Elev 781 ft 41.19 °N, 85.05 °W | Updated 7 minutes ago

Mostly Cloudy
Mostly Cloudy
83.0 °F
Feels Like 83 °F
N
2.0
Wind Variable Wind from SE
Gusts 18.0 mph

Today
High -- | Low -- °F
--% Chance of Precip.
Yesterday
High -- | Low -- °F
Precip. -- in
Pressure 29.52 in
Visibility 10.0 miles
Clouds Scattered Clouds 6500 ft
Scattered Clouds 8500 ft
Heat Index 83 °F
Dew Point 61 °F
Humidity 47%
Rainfall 0.00 in
Snow Depth Not available.
6:44 AM 8:32 PM
New Moon, 0% visible
METAR KGWB 262215Z AUTO 22007G14KT 10SM SCT065 SCT085 27/12 A2952 RMK AO2
Pressure 29.52 in
Visibility 10.0 miles
Clouds Scattered Clouds 6500 ft
Scattered Clouds 8500 ft
Heat Index 83 °F
Dew Point 61 °F
Humidity 47%
Rainfall 0.00 in
Snow Depth Not available.
6:44 AM 8:32 PM
New Moon, 0% visible
METAR KGWB 262215Z AUTO 22007G14KT 10SM SCT065 SCT085 27/12 A2952 RMK AO2

Get Your Daily Forecast Email!

Thanks for signing up!

Be on the lookout for a verification email in your inbox.

You'll start receiving severe weather alerts in your inbox..

×

10-Day Weather Forecast

Almanac

Astronomy

Apr. 26, 2017 Rise Set
Actual Time
Civil Twilight
Nautical Twilight
Astronomical Twilight
Moon
Length of Visible Light
Length of Day
Tomorrow will be .
, % of the Moon is Illuminated

Today's Extremes

State Highs State Lows

Community

WunderPhotos

WunderBlog® & News

Nearby

Air Quality

  Air Quality AQ Index Pollutant
Not available.

Snow Depth

Station Depth Elevation

Earthquake Activity

City Distance Mag. Time & Date
Minimum magnitude displayed is 2.5.

Coastal Water Temperatures

Place Temperature

Stations

Nearby Weather Stations

Station Location Temp. Windchill Dew Point Humidity Wind Precip. Elev Updated Type
                   

Watches & Warnings

Severe Thunderstorm Watch
Issued: 6:03 PM EDT Apr. 26, 2017 – National Weather Service

Severe Thunderstorm Watch 165 remains in effect until 1200 am EDT
for the following locations


In
. Indiana counties included are

Adams Allen Blackford
Boone Carroll Cass
Clay Clinton De Kalb
Delaware Elkhart Fountain
Fulton Grant Greene
Hamilton Hancock Hendricks
Henry Howard Huntington
Jay Johnson Kosciusko
LaGrange Madison Marion
Marshall Miami Monroe
Montgomery Morgan Noble
Owen Parke Pulaski
Putnam Randolph Shelby
Steuben Sullivan Tippecanoe
Tipton Vermillion Vigo
Wabash Wells white
Whitley